sensor_id;sensor_type;location;lat;lon;timestamp;temperature;humidity
19050;DHT22;9657;45.940;12.840;2022-09-03T00:02:21;27.30;45.90
19050;DHT22;9657;45.940;12.840;2022-09-03T00:04:54;27.30;46.00
19050;DHT22;9657;45.940;12.840;2022-09-03T00:07:31;27.30;46.00
19050;DHT22;9657;45.940;12.840;2022-09-03T00:10:04;27.30;46.00
19050;DHT22;9657;45.940;12.840;2022-09-03T00:12:36;27.30;46.00
19050;DHT22;9657;45.940;12.840;2022-09-03T00:15:09;27.30;46.60
19050;DHT22;9657;45.940;12.840;2022-09-03T00:17:40;27.30;46.00
19050;DHT22;9657;45.940;12.840;2022-09-03T00:20:11;27.20;45.90
19050;DHT22;9657;45.940;12.840;2022-09-03T00:22:43;27.20;45.90
19050;DHT22;9657;45.940;12.840;2022-09-03T00:25:16;27.30;46.00
19050;DHT22;9657;45.940;12.840;2022-09-03T00:27:47;27.20;45.90
19050;DHT22;9657;45.940;12.840;2022-09-03T00:30:18;27.20;45.90
19050;DHT22;9657;45.940;12.840;2022-09-03T00:32:48;27.20;45.90
19050;DHT22;9657;45.940;12.840;2022-09-03T00:35:21;27.20;45.90
19050;DHT22;9657;45.940;12.840;2022-09-03T00:37:52;27.20;45.90
19050;DHT22;9657;45.940;12.840;2022-09-03T00:40:34;27.20;45.90
19050;DHT22;9657;45.940;12.840;2022-09-03T00:43:10;27.20;45.90
19050;DHT22;9657;45.940;12.840;2022-09-03T00:45:48;27.20;45.90
19050;DHT22;9657;45.940;12.840;2022-09-03T00:48:22;27.20;45.90
19050;DHT22;9657;45.940;12.840;2022-09-03T00:51:04;27.20;45.80
19050;DHT22;9657;45.940;12.840;2022-09-03T00:53:50;27.20;45.80
19050;DHT22;9657;45.940;12.840;2022-09-03T00:56:29;27.20;45.80
19050;DHT22;9657;45.940;12.840;2022-09-03T00:59:09;27.20;45.80
19050;DHT22;9657;45.940;12.840;2022-09-03T01:04:28;27.20;45.90
19050;DHT22;9657;45.940;12.840;2022-09-03T01:07:04;27.20;45.90
19050;DHT22;9657;45.940;12.840;2022-09-03T01:09:47;27.20;45.90
19050;DHT22;9657;45.940;12.840;2022-09-03T01:12:24;27.20;45.90
19050;DHT22;9657;45.940;12.840;2022-09-03T01:15:03;27.20;45.90
19050;DHT22;9657;45.940;12.840;2022-09-03T01:17:43;27.20;45.80
19050;DHT22;9657;45.940;12.840;2022-09-03T01:20:39;27.20;45.90
19050;DHT22;9657;45.940;12.840;2022-09-03T01:26:22;27.20;45.80
19050;DHT22;9657;45.940;12.840;2022-09-03T01:29:00;27.20;46.60
19050;DHT22;9657;45.940;12.840;2022-09-03T01:31:36;27.20;45.90
19050;DHT22;9657;45.940;12.840;2022-09-03T01:34:12;27.20;45.90
19050;DHT22;9657;45.940;12.840;2022-09-03T01:36:49;27.20;45.90
19050;DHT22;9657;45.940;12.840;2022-09-03T01:39:25;27.20;45.90
19050;DHT22;9657;45.940;12.840;2022-09-03T01:42:01;27.20;45.90
19050;DHT22;9657;45.940;12.840;2022-09-03T01:45:18;27.10;45.90
19050;DHT22;9657;45.940;12.840;2022-09-03T01:47:56;27.20;46.00
19050;DHT22;9657;45.940;12.840;2022-09-03T01:50:37;27.10;45.90
19050;DHT22;9657;45.940;12.840;2022-09-03T01:53:11;27.20;46.00
19050;DHT22;9657;45.940;12.840;2022-09-03T01:55:55;27.10;46.00
19050;DHT22;9657;45.940;12.840;2022-09-03T01:58:28;27.20;46.10
19050;DHT22;9657;45.940;12.840;2022-09-03T02:01:02;27.10;46.00
19050;DHT22;9657;45.940;12.840;2022-09-03T02:03:35;27.10;46.00
19050;DHT22;9657;45.940;12.840;2022-09-03T02:06:03;27.10;46.00
19050;DHT22;9657;45.940;12.840;2022-09-03T02:08:32;27.10;46.00
19050;DHT22;9657;45.940;12.840;2022-09-03T02:11:00;27.10;46.00
19050;DHT22;9657;45.940;12.840;2022-09-03T02:13:31;27.10;46.00
19050;DHT22;9657;45.940;12.840;2022-09-03T02:16:05;27.20;46.20
19050;DHT22;9657;45.940;12.840;2022-09-03T02:18:37;27.10;46.10
19050;DHT22;9657;45.940;12.840;2022-09-03T02:21:07;27.10;46.10
19050;DHT22;9657;45.940;12.840;2022-09-03T02:23:38;27.10;46.10
19050;DHT22;9657;45.940;12.840;2022-09-03T02:26:06;27.10;46.10
19050;DHT22;9657;45.940;12.840;2022-09-03T02:28:35;27.10;46.10
19050;DHT22;9657;45.940;12.840;2022-09-03T02:31:03;27.10;46.10
19050;DHT22;9657;45.940;12.840;2022-09-03T02:33:34;27.10;46.20
19050;DHT22;9657;45.940;12.840;2022-09-03T02:36:03;27.10;46.20
19050;DHT22;9657;45.940;12.840;2022-09-03T02:38:31;27.10;46.20
19050;DHT22;9657;45.940;12.840;2022-09-03T02:40:58;27.10;46.20
19050;DHT22;9657;45.940;12.840;2022-09-03T02:43:29;27.10;46.20
19050;DHT22;9657;45.940;12.840;2022-09-03T02:46:00;27.10;46.20
19050;DHT22;9657;45.940;12.840;2022-09-03T02:48:29;27.10;46.20
19050;DHT22;9657;45.940;12.840;2022-09-03T02:50:56;27.10;46.20
19050;DHT22;9657;45.940;12.840;2022-09-03T02:53:23;27.10;46.20
19050;DHT22;9657;45.940;12.840;2022-09-03T02:55:57;27.10;46.20
19050;DHT22;9657;45.940;12.840;2022-09-03T02:58:25;27.10;46.30
19050;DHT22;9657;45.940;12.840;2022-09-03T03:00:52;27.10;46.20
19050;DHT22;9657;45.940;12.840;2022-09-03T03:03:19;27.10;46.20
19050;DHT22;9657;45.940;12.840;2022-09-03T03:05:49;27.10;46.20
19050;DHT22;9657;45.940;12.840;2022-09-03T03:08:17;27.10;46.30
19050;DHT22;9657;45.940;12.840;2022-09-03T03:10:46;27.10;46.20
19050;DHT22;9657;45.940;12.840;2022-09-03T03:13:14;27.10;46.20
19050;DHT22;9657;45.940;12.840;2022-09-03T03:15:42;27.10;46.20
19050;DHT22;9657;45.940;12.840;2022-09-03T03:18:10;27.10;46.20
19050;DHT22;9657;45.940;12.840;2022-09-03T03:20:38;27.10;46.30
19050;DHT22;9657;45.940;12.840;2022-09-03T03:23:07;27.10;46.30
19050;DHT22;9657;45.940;12.840;2022-09-03T03:25:36;27.10;46.20
19050;DHT22;9657;45.940;12.840;2022-09-03T03:28:04;27.10;46.20
19050;DHT22;9657;45.940;12.840;2022-09-03T03:30:32;27.00;46.20
19050;DHT22;9657;45.940;12.840;2022-09-03T03:32:59;27.10;46.30
19050;DHT22;9657;45.940;12.840;2022-09-03T03:35:26;27.10;46.30
19050;DHT22;9657;45.940;12.840;2022-09-03T03:37:56;27.00;46.20
19050;DHT22;9657;45.940;12.840;2022-09-03T03:40:24;27.00;46.20
19050;DHT22;9657;45.940;12.840;2022-09-03T03:42:52;27.00;46.20
19050;DHT22;9657;45.940;12.840;2022-09-03T03:45:19;27.00;46.20
19050;DHT22;9657;45.940;12.840;2022-09-03T03:47:47;27.00;46.20
19050;DHT22;9657;45.940;12.840;2022-09-03T03:50:14;27.00;46.20
19050;DHT22;9657;45.940;12.840;2022-09-03T03:52:41;27.00;46.20
19050;DHT22;9657;45.940;12.840;2022-09-03T03:55:09;27.00;46.20
19050;DHT22;9657;45.940;12.840;2022-09-03T03:57:37;27.00;46.20
19050;DHT22;9657;45.940;12.840;2022-09-03T04:00:05;27.00;46.20
19050;DHT22;9657;45.940;12.840;2022-09-03T04:02:33;27.00;46.10
19050;DHT22;9657;45.940;12.840;2022-09-03T04:05:00;27.00;46.20
19050;DHT22;9657;45.940;12.840;2022-09-03T04:07:27;27.00;46.10
19050;DHT22;9657;45.940;12.840;2022-09-03T04:09:54;27.00;46.10
19050;DHT22;9657;45.940;12.840;2022-09-03T04:12:21;27.00;46.10
19050;DHT22;9657;45.940;12.840;2022-09-03T04:14:49;27.00;46.10
19050;DHT22;9657;45.940;12.840;2022-09-03T04:17:16;27.00;46.10
19050;DHT22;9657;45.940;12.840;2022-09-03T04:19:43;27.00;46.20
19050;DHT22;9657;45.940;12.840;2022-09-03T04:22:12;27.00;46.10
19050;DHT22;9657;45.940;12.840;2022-09-03T04:24:40;27.00;46.10
19050;DHT22;9657;45.940;12.840;2022-09-03T04:27:07;27.00;46.10
19050;DHT22;9657;45.940;12.840;2022-09-03T04:29:34;27.00;46.10
19050;DHT22;9657;45.940;12.840;2022-09-03T04:32:03;27.00;46.10
19050;DHT22;9657;45.940;12.840;2022-09-03T04:34:48;27.00;46.10
19050;DHT22;9657;45.940;12.840;2022-09-03T04:37:15;27.00;46.10
19050;DHT22;9657;45.940;12.840;2022-09-03T04:39:44;26.90;46.10
19050;DHT22;9657;45.940;12.840;2022-09-03T04:42:11;26.90;46.10
19050;DHT22;9657;45.940;12.840;2022-09-03T04:44:38;26.90;46.10
19050;DHT22;9657;45.940;12.840;2022-09-03T04:47:07;26.90;46.10
19050;DHT22;9657;45.940;12.840;2022-09-03T04:49:34;26.90;46.10
19050;DHT22;9657;45.940;12.840;2022-09-03T04:52:02;26.90;46.10
19050;DHT22;9657;45.940;12.840;2022-09-03T04:54:29;27.00;46.20
19050;DHT22;9657;45.940;12.840;2022-09-03T04:56:56;26.90;46.10
19050;DHT22;9657;45.940;12.840;2022-09-03T04:59:23;26.90;46.10
19050;DHT22;9657;45.940;12.840;2022-09-03T05:01:50;26.90;46.10
19050;DHT22;9657;45.940;12.840;2022-09-03T05:04:19;26.90;46.10
19050;DHT22;9657;45.940;12.840;2022-09-03T05:06:46;26.90;46.20
19050;DHT22;9657;45.940;12.840;2022-09-03T05:09:13;26.90;46.10
19050;DHT22;9657;45.940;12.840;2022-09-03T05:11:40;26.90;46.10
19050;DHT22;9657;45.940;12.840;2022-09-03T05:14:07;26.90;46.20
19050;DHT22;9657;45.940;12.840;2022-09-03T05:16:37;26.90;46.20
19050;DHT22;9657;45.940;12.840;2022-09-03T05:19:04;26.90;46.20
19050;DHT22;9657;45.940;12.840;2022-09-03T05:21:34;26.90;46.20
19050;DHT22;9657;45.940;12.840;2022-09-03T05:24:02;26.90;46.20
19050;DHT22;9657;45.940;12.840;2022-09-03T05:26:31;26.90;46.20
19050;DHT22;9657;45.940;12.840;2022-09-03T05:29:00;26.90;46.20
19050;DHT22;9657;45.940;12.840;2022-09-03T05:31:29;26.90;46.20
19050;DHT22;9657;45.940;12.840;2022-09-03T05:33:58;26.90;46.30
19050;DHT22;9657;45.940;12.840;2022-09-03T05:36:27;26.90;46.30
19050;DHT22;9657;45.940;12.840;2022-09-03T05:38:57;26.90;46.30
19050;DHT22;9657;45.940;12.840;2022-09-03T05:41:25;26.90;46.30
19050;DHT22;9657;45.940;12.840;2022-09-03T05:43:53;26.90;46.30
19050;DHT22;9657;45.940;12.840;2022-09-03T05:46:22;26.90;46.30
19050;DHT22;9657;45.940;12.840;2022-09-03T05:48:51;26.90;46.40
19050;DHT22;9657;45.940;12.840;2022-09-03T05:51:18;26.80;46.40
19050;DHT22;9657;45.940;12.840;2022-09-03T05:53:47;26.90;46.40
19050;DHT22;9657;45.940;12.840;2022-09-03T05:56:17;26.80;46.40
19050;DHT22;9657;45.940;12.840;2022-09-03T05:58:45;26.90;46.40
19050;DHT22;9657;45.940;12.840;2022-09-03T06:01:14;26.90;46.40
19050;DHT22;9657;45.940;12.840;2022-09-03T06:03:43;26.80;46.50
19050;DHT22;9657;45.940;12.840;2022-09-03T06:06:11;26.90;46.50
19050;DHT22;9657;45.940;12.840;2022-09-03T06:08:39;26.90;46.50
19050;DHT22;9657;45.940;12.840;2022-09-03T06:11:09;26.80;46.50
19050;DHT22;9657;45.940;12.840;2022-09-03T06:13:38;26.80;46.50
19050;DHT22;9657;45.940;12.840;2022-09-03T06:16:06;26.80;46.50
19050;DHT22;9657;45.940;12.840;2022-09-03T06:18:34;26.80;46.50
19050;DHT22;9657;45.940;12.840;2022-09-03T06:21:02;26.80;46.50
19050;DHT22;9657;45.940;12.840;2022-09-03T06:23:30;26.80;46.50
19050;DHT22;9657;45.940;12.840;2022-09-03T06:26:02;26.80;46.50
19050;DHT22;9657;45.940;12.840;2022-09-03T06:28:30;26.80;46.60
19050;DHT22;9657;45.940;12.840;2022-09-03T06:31:00;26.90;46.70
19050;DHT22;9657;45.940;12.840;2022-09-03T06:33:28;26.90;46.70
19050;DHT22;9657;45.940;12.840;2022-09-03T06:35:56;26.90;46.70
19050;DHT22;9657;45.940;12.840;2022-09-03T06:38:25;26.90;46.70
19050;DHT22;9657;45.940;12.840;2022-09-03T06:40:54;26.80;46.60
19050;DHT22;9657;45.940;12.840;2022-09-03T06:43:21;26.90;46.70
19050;DHT22;9657;45.940;12.840;2022-09-03T06:45:56;26.80;46.60
19050;DHT22;9657;45.940;12.840;2022-09-03T06:48:25;26.80;46.60
19050;DHT22;9657;45.940;12.840;2022-09-03T06:50:54;26.90;46.70
19050;DHT22;9657;45.940;12.840;2022-09-03T06:53:23;26.80;46.70
19050;DHT22;9657;45.940;12.840;2022-09-03T06:55:54;26.80;46.70
19050;DHT22;9657;45.940;12.840;2022-09-03T06:58:21;26.80;46.70
19050;DHT22;9657;45.940;12.840;2022-09-03T07:00:49;26.80;46.70
19050;DHT22;9657;45.940;12.840;2022-09-03T07:03:17;26.80;46.70
19050;DHT22;9657;45.940;12.840;2022-09-03T07:05:46;26.90;46.80
19050;DHT22;9657;45.940;12.840;2022-09-03T07:08:13;26.90;46.80
19050;DHT22;9657;45.940;12.840;2022-09-03T07:10:44;26.90;46.80
19050;DHT22;9657;45.940;12.840;2022-09-03T07:13:12;26.80;46.80
19050;DHT22;9657;45.940;12.840;2022-09-03T07:15:39;26.90;46.90
19050;DHT22;9657;45.940;12.840;2022-09-03T07:18:07;26.80;46.80
19050;DHT22;9657;45.940;12.840;2022-09-03T07:20:34;26.90;46.90
19050;DHT22;9657;45.940;12.840;2022-09-03T07:23:02;26.90;46.90
19050;DHT22;9657;45.940;12.840;2022-09-03T07:25:29;26.90;46.90
19050;DHT22;9657;45.940;12.840;2022-09-03T07:27:56;26.80;46.80
19050;DHT22;9657;45.940;12.840;2022-09-03T07:30:24;26.80;46.80
19050;DHT22;9657;45.940;12.840;2022-09-03T07:32:52;26.80;46.90
19050;DHT22;9657;45.940;12.840;2022-09-03T07:35:19;26.80;46.90
19050;DHT22;9657;45.940;12.840;2022-09-03T07:37:50;26.90;46.90
19050;DHT22;9657;45.940;12.840;2022-09-03T07:40:18;26.80;46.90
19050;DHT22;9657;45.940;12.840;2022-09-03T07:42:45;26.80;46.90
19050;DHT22;9657;45.940;12.840;2022-09-03T07:45:13;26.80;46.90
19050;DHT22;9657;45.940;12.840;2022-09-03T07:47:46;26.80;46.90
19050;DHT22;9657;45.940;12.840;2022-09-03T07:50:14;26.80;46.90
19050;DHT22;9657;45.940;12.840;2022-09-03T07:52:42;26.80;47.00
19050;DHT22;9657;45.940;12.840;2022-09-03T07:55:09;26.90;47.00
19050;DHT22;9657;45.940;12.840;2022-09-03T07:57:38;26.80;47.00
19050;DHT22;9657;45.940;12.840;2022-09-03T08:00:07;26.80;47.00
19050;DHT22;9657;45.940;12.840;2022-09-03T08:02:34;26.80;47.00
19050;DHT22;9657;45.940;12.840;2022-09-03T08:05:01;26.80;47.00
19050;DHT22;9657;45.940;12.840;2022-09-03T08:07:29;26.80;47.00
19050;DHT22;9657;45.940;12.840;2022-09-03T08:09:56;26.80;47.00
19050;DHT22;9657;45.940;12.840;2022-09-03T08:12:23;26.80;47.00
19050;DHT22;9657;45.940;12.840;2022-09-03T08:14:51;26.80;47.00
19050;DHT22;9657;45.940;12.840;2022-09-03T08:17:18;26.90;47.00
19050;DHT22;9657;45.940;12.840;2022-09-03T08:19:45;26.90;47.00
19050;DHT22;9657;45.940;12.840;2022-09-03T08:22:12;26.80;47.70
19050;DHT22;9657;45.940;12.840;2022-09-03T08:24:39;26.90;47.00
19050;DHT22;9657;45.940;12.840;2022-09-03T08:27:07;26.80;47.00
19050;DHT22;9657;45.940;12.840;2022-09-03T08:29:34;26.80;47.00
19050;DHT22;9657;45.940;12.840;2022-09-03T08:32:04;26.80;47.00
19050;DHT22;9657;45.940;12.840;2022-09-03T08:34:31;26.80;47.00
19050;DHT22;9657;45.940;12.840;2022-09-03T08:36:58;26.80;47.00
19050;DHT22;9657;45.940;12.840;2022-09-03T08:39:26;26.80;47.00
19050;DHT22;9657;45.940;12.840;2022-09-03T08:42:15;26.80;47.00
19050;DHT22;9657;45.940;12.840;2022-09-03T08:44:47;26.80;47.00
19050;DHT22;9657;45.940;12.840;2022-09-03T08:47:20;26.80;47.00
19050;DHT22;9657;45.940;12.840;2022-09-03T08:49:51;26.80;47.00
19050;DHT22;9657;45.940;12.840;2022-09-03T08:52:27;26.90;47.10
19050;DHT22;9657;45.940;12.840;2022-09-03T08:55:01;26.80;47.00
19050;DHT22;9657;45.940;12.840;2022-09-03T08:57:35;26.90;47.00
19050;DHT22;9657;45.940;12.840;2022-09-03T09:00:04;26.90;47.00
19050;DHT22;9657;45.940;12.840;2022-09-03T09:02:42;26.90;47.10
19050;DHT22;9657;45.940;12.840;2022-09-03T09:05:14;26.90;47.00
19050;DHT22;9657;45.940;12.840;2022-09-03T09:07:48;26.90;47.00
19050;DHT22;9657;45.940;12.840;2022-09-03T09:10:21;26.90;47.10
19050;DHT22;9657;45.940;12.840;2022-09-03T09:13:02;26.90;47.10
19050;DHT22;9657;45.940;12.840;2022-09-03T09:15:39;26.90;47.10
19050;DHT22;9657;45.940;12.840;2022-09-03T09:18:16;26.90;47.10
19050;DHT22;9657;45.940;12.840;2022-09-03T09:20:48;26.90;47.10
19050;DHT22;9657;45.940;12.840;2022-09-03T09:23:21;26.90;47.10
19050;DHT22;9657;45.940;12.840;2022-09-03T09:25:50;26.90;47.10
19050;DHT22;9657;45.940;12.840;2022-09-03T09:28:21;26.90;47.10
19050;DHT22;9657;45.940;12.840;2022-09-03T09:30:50;26.90;47.10
19050;DHT22;9657;45.940;12.840;2022-09-03T09:33:19;26.90;47.10
19050;DHT22;9657;45.940;12.840;2022-09-03T09:35:48;27.00;47.10
19050;DHT22;9657;45.940;12.840;2022-09-03T09:38:26;26.90;47.10
19050;DHT22;9657;45.940;12.840;2022-09-03T09:40:53;27.00;47.10
19050;DHT22;9657;45.940;12.840;2022-09-03T09:43:22;27.00;47.10
19050;DHT22;9657;45.940;12.840;2022-09-03T09:45:50;27.00;47.10
19050;DHT22;9657;45.940;12.840;2022-09-03T09:48:22;27.00;47.10
19050;DHT22;9657;45.940;12.840;2022-09-03T09:51:03;27.00;47.00
19050;DHT22;9657;45.940;12.840;2022-09-03T09:53:31;27.10;47.10
19050;DHT22;9657;45.940;12.840;2022-09-03T09:55:59;27.10;47.00
19050;DHT22;9657;45.940;12.840;2022-09-03T09:58:28;27.10;47.00
19050;DHT22;9657;45.940;12.840;2022-09-03T10:00:59;27.20;47.00
19050;DHT22;9657;45.940;12.840;2022-09-03T10:03:30;27.20;47.00
19050;DHT22;9657;45.940;12.840;2022-09-03T10:06:05;27.20;47.00
19050;DHT22;9657;45.940;12.840;2022-09-03T10:08:50;27.20;47.00
19050;DHT22;9657;45.940;12.840;2022-09-03T10:11:19;27.30;47.00
19050;DHT22;9657;45.940;12.840;2022-09-03T10:13:51;27.20;46.90
19050;DHT22;9657;45.940;12.840;2022-09-03T10:16:21;27.30;46.90
19050;DHT22;9657;45.940;12.840;2022-09-03T10:18:59;27.30;46.90
19050;DHT22;9657;45.940;12.840;2022-09-03T10:21:31;27.40;46.90
19050;DHT22;9657;45.940;12.840;2022-09-03T10:26:52;27.40;46.80
19050;DHT22;9657;45.940;12.840;2022-09-03T10:29:21;27.40;46.80
19050;DHT22;9657;45.940;12.840;2022-09-03T10:32:02;27.40;46.80
19050;DHT22;9657;45.940;12.840;2022-09-03T10:34:40;27.50;46.80
19050;DHT22;9657;45.940;12.840;2022-09-03T10:37:18;27.40;46.70
19050;DHT22;9657;45.940;12.840;2022-09-03T10:40:09;27.40;46.70
19050;DHT22;9657;45.940;12.840;2022-09-03T10:42:43;27.50;46.70
19050;DHT22;9657;45.940;12.840;2022-09-03T10:45:18;27.50;46.70
19050;DHT22;9657;45.940;12.840;2022-09-03T10:51:04;27.50;46.70
19050;DHT22;9657;45.940;12.840;2022-09-03T10:53:51;27.50;46.70
19050;DHT22;9657;45.940;12.840;2022-09-03T10:56:26;27.50;46.70
19050;DHT22;9657;45.940;12.840;2022-09-03T10:59:10;27.50;46.70
19050;DHT22;9657;45.940;12.840;2022-09-03T11:01:50;27.50;46.70
19050;DHT22;9657;45.940;12.840;2022-09-03T11:04:27;27.50;46.70
19050;DHT22;9657;45.940;12.840;2022-09-03T11:07:00;27.50;46.70
19050;DHT22;9657;45.940;12.840;2022-09-03T11:09:32;27.50;46.70
19050;DHT22;9657;45.940;12.840;2022-09-03T11:12:04;27.50;46.70
19050;DHT22;9657;45.940;12.840;2022-09-03T11:14:35;27.50;46.80
19050;DHT22;9657;45.940;12.840;2022-09-03T11:17:08;27.50;46.70
19050;DHT22;9657;45.940;12.840;2022-09-03T11:19:44;27.50;46.70
19050;DHT22;9657;45.940;12.840;2022-09-03T11:22:18;27.50;46.80
19050;DHT22;9657;45.940;12.840;2022-09-03T11:24:52;27.50;46.80
19050;DHT22;9657;45.940;12.840;2022-09-03T11:27:31;27.50;46.70
19050;DHT22;9657;45.940;12.840;2022-09-03T11:30:04;27.50;46.70
19050;DHT22;9657;45.940;12.840;2022-09-03T11:32:44;27.50;46.70
19050;DHT22;9657;45.940;12.840;2022-09-03T11:35:16;27.50;46.70
19050;DHT22;9657;45.940;12.840;2022-09-03T11:37:56;27.50;46.70
19050;DHT22;9657;45.940;12.840;2022-09-03T11:40:30;27.40;46.60
19050;DHT22;9657;45.940;12.840;2022-09-03T11:43:06;27.50;46.70
19050;DHT22;9657;45.940;12.840;2022-09-03T11:45:35;27.40;46.60
19050;DHT22;9657;45.940;12.840;2022-09-03T11:48:29;27.40;46.70
19050;DHT22;9657;45.940;12.840;2022-09-03T11:50:58;27.50;46.70
19050;DHT22;9657;45.940;12.840;2022-09-03T11:53:32;27.50;46.70
19050;DHT22;9657;45.940;12.840;2022-09-03T11:56:11;27.50;46.70
19050;DHT22;9657;45.940;12.840;2022-09-03T11:58:43;27.40;46.70
19050;DHT22;9657;45.940;12.840;2022-09-03T12:01:11;27.50;46.70
19050;DHT22;9657;45.940;12.840;2022-09-03T12:03:43;27.40;46.60
19050;DHT22;9657;45.940;12.840;2022-09-03T12:06:36;27.40;46.70
19050;DHT22;9657;45.940;12.840;2022-09-03T12:09:28;27.40;46.70
19050;DHT22;9657;45.940;12.840;2022-09-03T12:12:11;27.40;46.70
19050;DHT22;9657;45.940;12.840;2022-09-03T12:14:48;27.40;46.70
19050;DHT22;9657;45.940;12.840;2022-09-03T12:17:25;27.40;46.70
19050;DHT22;9657;45.940;12.840;2022-09-03T12:19:56;27.40;46.70
19050;DHT22;9657;45.940;12.840;2022-09-03T12:22:25;27.40;46.70
19050;DHT22;9657;45.940;12.840;2022-09-03T12:24:54;27.40;46.70
19050;DHT22;9657;45.940;12.840;2022-09-03T12:27:23;27.40;46.60
19050;DHT22;9657;45.940;12.840;2022-09-03T12:29:55;27.40;46.70
19050;DHT22;9657;45.940;12.840;2022-09-03T12:32:25;27.40;46.60
19050;DHT22;9657;45.940;12.840;2022-09-03T12:34:53;27.40;46.60
19050;DHT22;9657;45.940;12.840;2022-09-03T12:37:22;27.40;46.60
19050;DHT22;9657;45.940;12.840;2022-09-03T12:39:51;27.40;46.60
19050;DHT22;9657;45.940;12.840;2022-09-03T12:42:23;27.40;46.60
19050;DHT22;9657;45.940;12.840;2022-09-03T12:44:52;27.40;46.60
19050;DHT22;9657;45.940;12.840;2022-09-03T12:47:20;27.40;46.60
19050;DHT22;9657;45.940;12.840;2022-09-03T12:49:49;27.40;46.60
19050;DHT22;9657;45.940;12.840;2022-09-03T12:52:19;27.40;46.70
19050;DHT22;9657;45.940;12.840;2022-09-03T12:54:51;27.40;46.60
19050;DHT22;9657;45.940;12.840;2022-09-03T12:57:24;27.40;46.70
19050;DHT22;9657;45.940;12.840;2022-09-03T12:59:55;27.40;46.60
19050;DHT22;9657;45.940;12.840;2022-09-03T13:02:27;27.40;46.70
19050;DHT22;9657;45.940;12.840;2022-09-03T13:04:58;27.40;46.70
19050;DHT22;9657;45.940;12.840;2022-09-03T13:07:29;27.40;46.70
19050;DHT22;9657;45.940;12.840;2022-09-03T13:10:03;27.40;46.70
19050;DHT22;9657;45.940;12.840;2022-09-03T13:12:40;27.40;46.70
19050;DHT22;9657;45.940;12.840;2022-09-03T13:15:16;27.40;46.70
19050;DHT22;9657;45.940;12.840;2022-09-03T13:18:01;27.40;46.70
19050;DHT22;9657;45.940;12.840;2022-09-03T13:20:42;27.40;46.80
19050;DHT22;9657;45.940;12.840;2022-09-03T13:23:33;27.40;46.80
19050;DHT22;9657;45.940;12.840;2022-09-03T13:26:11;27.40;46.70
19050;DHT22;9657;45.940;12.840;2022-09-03T13:28:55;27.40;46.80
19050;DHT22;9657;45.940;12.840;2022-09-03T13:31:31;27.40;46.80
19050;DHT22;9657;45.940;12.840;2022-09-03T13:34:03;27.40;46.80
19050;DHT22;9657;45.940;12.840;2022-09-03T13:36:39;27.40;46.80
19050;DHT22;9657;45.940;12.840;2022-09-03T13:39:19;27.50;46.80
19050;DHT22;9657;45.940;12.840;2022-09-03T13:41:50;27.40;46.80
19050;DHT22;9657;45.940;12.840;2022-09-03T13:44:28;27.40;46.80
19050;DHT22;9657;45.940;12.840;2022-09-03T13:47:00;27.40;46.80
19050;DHT22;9657;45.940;12.840;2022-09-03T13:49:38;27.50;46.90
19050;DHT22;9657;45.940;12.840;2022-09-03T13:52:38;27.50;46.80
19050;DHT22;9657;45.940;12.840;2022-09-03T13:55:10;27.50;46.80
19050;DHT22;9657;45.940;12.840;2022-09-03T13:57:44;27.50;46.80
19050;DHT22;9657;45.940;12.840;2022-09-03T14:00:22;27.50;46.80
19050;DHT22;9657;45.940;12.840;2022-09-03T14:02:53;27.50;46.80
19050;DHT22;9657;45.940;12.840;2022-09-03T14:05:40;27.50;46.80
19050;DHT22;9657;45.940;12.840;2022-09-03T14:08:19;27.50;46.80
19050;DHT22;9657;45.940;12.840;2022-09-03T14:10:59;27.50;46.80
19050;DHT22;9657;45.940;12.840;2022-09-03T14:13:39;27.50;46.80
19050;DHT22;9657;45.940;12.840;2022-09-03T14:16:23;27.50;46.70
19050;DHT22;9657;45.940;12.840;2022-09-03T14:18:56;27.50;46.70
19050;DHT22;9657;45.940;12.840;2022-09-03T14:21:28;27.50;46.80
19050;DHT22;9657;45.940;12.840;2022-09-03T14:24:03;27.50;46.70
19050;DHT22;9657;45.940;12.840;2022-09-03T14:26:35;27.50;46.70
19050;DHT22;9657;45.940;12.840;2022-09-03T14:29:05;27.50;46.70
19050;DHT22;9657;45.940;12.840;2022-09-03T14:32:06;27.50;46.70
19050;DHT22;9657;45.940;12.840;2022-09-03T14:34:46;27.50;46.70
19050;DHT22;9657;45.940;12.840;2022-09-03T14:37:27;27.50;46.80
19050;DHT22;9657;45.940;12.840;2022-09-03T14:40:08;27.50;46.80
19050;DHT22;9657;45.940;12.840;2022-09-03T14:42:47;27.50;46.80
19050;DHT22;9657;45.940;12.840;2022-09-03T14:45:38;27.50;46.80
19050;DHT22;9657;45.940;12.840;2022-09-03T14:48:41;27.50;46.80
19050;DHT22;9657;45.940;12.840;2022-09-03T14:51:25;27.50;46.80
19050;DHT22;9657;45.940;12.840;2022-09-03T14:54:23;27.50;46.80
19050;DHT22;9657;45.940;12.840;2022-09-03T14:57:01;27.50;46.90
19050;DHT22;9657;45.940;12.840;2022-09-03T14:59:43;27.50;46.90
19050;DHT22;9657;45.940;12.840;2022-09-03T15:05:43;27.50;46.90
19050;DHT22;9657;45.940;12.840;2022-09-03T15:08:24;27.50;46.90
19050;DHT22;9657;45.940;12.840;2022-09-03T15:10:58;27.50;47.00
19050;DHT22;9657;45.940;12.840;2022-09-03T15:13:29;27.50;47.00
19050;DHT22;9657;45.940;12.840;2022-09-03T15:16:07;27.50;47.00
19050;DHT22;9657;45.940;12.840;2022-09-03T15:18:49;27.50;47.00
19050;DHT22;9657;45.940;12.840;2022-09-03T15:21:27;27.50;47.00
19050;DHT22;9657;45.940;12.840;2022-09-03T15:24:03;27.50;47.00
19050;DHT22;9657;45.940;12.840;2022-09-03T15:26:54;27.50;47.10
19050;DHT22;9657;45.940;12.840;2022-09-03T15:29:35;27.50;47.10
19050;DHT22;9657;45.940;12.840;2022-09-03T15:32:11;27.50;47.10
19050;DHT22;9657;45.940;12.840;2022-09-03T15:35:02;27.50;47.10
19050;DHT22;9657;45.940;12.840;2022-09-03T15:37:36;27.50;47.10
19050;DHT22;9657;45.940;12.840;2022-09-03T15:40:07;27.50;47.10
19050;DHT22;9657;45.940;12.840;2022-09-03T15:42:36;27.50;47.80
19050;DHT22;9657;45.940;12.840;2022-09-03T15:45:13;27.50;47.10
19050;DHT22;9657;45.940;12.840;2022-09-03T15:47:51;27.50;47.10
19050;DHT22;9657;45.940;12.840;2022-09-03T15:50:30;27.50;47.10
19050;DHT22;9657;45.940;12.840;2022-09-03T15:53:03;27.50;47.10
19050;DHT22;9657;45.940;12.840;2022-09-03T15:55:34;27.50;47.10
19050;DHT22;9657;45.940;12.840;2022-09-03T15:58:09;27.50;47.10
19050;DHT22;9657;45.940;12.840;2022-09-03T16:00:50;27.50;47.10
19050;DHT22;9657;45.940;12.840;2022-09-03T16:03:29;27.50;47.20
19050;DHT22;9657;45.940;12.840;2022-09-03T16:06:02;27.50;47.20
19050;DHT22;9657;45.940;12.840;2022-09-03T16:08:40;27.50;47.20
19050;DHT22;9657;45.940;12.840;2022-09-03T16:11:12;27.50;47.20
19050;DHT22;9657;45.940;12.840;2022-09-03T16:13:59;27.50;47.20
19050;DHT22;9657;45.940;12.840;2022-09-03T16:16:39;27.50;47.20
19050;DHT22;9657;45.940;12.840;2022-09-03T16:19:11;27.50;47.20
19050;DHT22;9657;45.940;12.840;2022-09-03T16:21:46;27.50;47.20